createdAt,value
2023-03-03T00:01:27.413Z,33.47
2023-03-03T00:03:55.320Z,32.63
2023-03-03T00:06:24.420Z,45.17
2023-03-03T00:08:52.302Z,33.30
2023-03-03T00:11:20.026Z,37.17
2023-03-03T00:13:51.611Z,35.43
2023-03-03T00:16:25.461Z,40.70
2023-03-03T00:18:54.036Z,40.73
2023-03-03T00:21:29.022Z,38.07
2023-03-03T00:24:02.833Z,32.83
2023-03-03T00:26:36.513Z,47.73
2023-03-03T00:29:25.377Z,42.33
2023-03-03T00:31:52.919Z,45.77
2023-03-03T00:34:26.657Z,38.67
2023-03-03T00:36:56.021Z,38.70
2023-03-03T00:39:30.480Z,35.47
2023-03-03T00:42:00.423Z,36.13
2023-03-03T00:44:41.271Z,44.10
2023-03-03T00:47:30.717Z,63.57
2023-03-03T00:50:28.569Z,28.93
2023-03-03T00:53:03.364Z,25.60
2023-03-03T00:55:32.014Z,24.67
2023-03-03T00:57:59.706Z,31.73
2023-03-03T01:00:29.176Z,40.97
2023-03-03T01:02:56.996Z,39.77
2023-03-03T01:05:24.546Z,33.23
2023-03-03T01:07:52.029Z,45.20
2023-03-03T01:10:19.673Z,40.20
2023-03-03T01:12:47.302Z,49.00
2023-03-03T01:15:16.011Z,45.17
2023-03-03T01:17:44.860Z,54.47
2023-03-03T01:20:14.989Z,52.40
2023-03-03T01:22:42.521Z,59.40
2023-03-03T01:25:10.938Z,49.73
2023-03-03T01:27:38.443Z,54.47
2023-03-03T01:30:07.239Z,51.67
2023-03-03T01:32:34.758Z,57.17
2023-03-03T01:35:03.586Z,56.57
2023-03-03T01:37:31.128Z,45.77
2023-03-03T01:39:58.651Z,40.97
2023-03-03T01:42:29.134Z,45.87
2023-03-03T01:45:22.803Z,34.40
2023-03-03T01:47:54.753Z,52.00
2023-03-03T01:50:32.728Z,51.53
2023-03-03T01:53:03.303Z,36.63
2023-03-03T01:55:35.417Z,28.17
2023-03-03T01:58:08.897Z,28.17
2023-03-03T02:00:39.038Z,34.57
2023-03-03T02:03:06.727Z,22.53
2023-03-03T02:05:36.896Z,39.00
2023-03-03T02:08:05.231Z,35.17
2023-03-03T02:10:33.020Z,30.63
2023-03-03T02:13:00.719Z,24.83
2023-03-03T02:15:32.154Z,26.03
2023-03-03T02:18:04.162Z,37.07
2023-03-03T02:20:45.205Z,28.03
2023-03-03T02:23:18.846Z,37.90
2023-03-03T02:25:54.149Z,44.53
2023-03-03T02:28:24.523Z,57.10
2023-03-03T02:30:55.437Z,50.17
2023-03-03T02:33:23.155Z,62.07
2023-03-03T02:35:51.128Z,62.50
2023-03-03T02:38:24.105Z,56.03
2023-03-03T02:41:01.430Z,61.60
2023-03-03T02:43:34.864Z,50.27
2023-03-03T02:46:02.413Z,49.67
2023-03-03T02:48:29.916Z,45.97
2023-03-03T02:50:57.394Z,46.17
2023-03-03T02:53:24.872Z,39.87
2023-03-03T02:55:52.342Z,43.47
2023-03-03T02:58:19.913Z,31.20
2023-03-03T03:00:48.820Z,27.10
2023-03-03T03:03:16.326Z,33.97
2023-03-03T03:05:43.790Z,37.03
2023-03-03T03:08:11.283Z,36.83
2023-03-03T03:10:38.929Z,33.60
2023-03-03T03:13:06.419Z,23.00
2023-03-03T03:15:33.893Z,30.93
2023-03-03T03:18:02.727Z,33.13
2023-03-03T03:20:30.481Z,28.90
2023-03-03T03:22:57.985Z,35.47
2023-03-03T03:25:25.579Z,38.20
2023-03-03T03:27:53.057Z,27.17
2023-03-03T03:30:22.453Z,30.70
2023-03-03T03:32:49.949Z,33.40
2023-03-03T03:35:18.993Z,19.57
2023-03-03T03:37:46.510Z,32.40
2023-03-03T03:40:14.364Z,20.17
2023-03-03T03:42:41.901Z,23.37
2023-03-03T03:45:10.199Z,18.10
2023-03-03T03:47:38.100Z,33.10
2023-03-03T03:50:06.264Z,24.47
2023-03-03T03:52:35.047Z,22.47
2023-03-03T03:55:02.562Z,24.27
2023-03-03T03:57:30.033Z,23.93
2023-03-03T03:59:57.733Z,25.57
2023-03-03T04:02:25.341Z,29.63
2023-03-03T04:04:52.902Z,21.80
2023-03-03T04:07:20.356Z,18.97
2023-03-03T04:09:49.242Z,17.87
2023-03-03T04:12:16.709Z,26.10
2023-03-03T04:14:44.208Z,32.13
2023-03-03T04:17:17.123Z,28.70
2023-03-03T04:19:44.589Z,28.80
2023-03-03T04:22:12.594Z,23.03
2023-03-03T04:24:40.187Z,20.27
2023-03-03T04:27:09.602Z,23.00
2023-03-03T04:29:37.305Z,26.67
2023-03-03T04:32:05.014Z,42.40
2023-03-03T04:34:32.523Z,48.30
2023-03-03T04:37:00.019Z,33.27
2023-03-03T04:39:27.558Z,23.60
2023-03-03T04:41:55.083Z,20.80
2023-03-03T04:44:23.869Z,21.93
2023-03-03T04:46:51.359Z,20.23
2023-03-03T04:49:18.825Z,26.70
2023-03-03T04:51:46.283Z,25.20
2023-03-03T04:54:13.769Z,24.27
2023-03-03T04:56:41.321Z,21.43
2023-03-03T04:59:08.789Z,35.77
2023-03-03T05:01:37.790Z,23.77
2023-03-03T05:04:05.323Z,26.27
2023-03-03T05:06:32.806Z,35.80
2023-03-03T05:09:00.332Z,36.27
2023-03-03T05:11:27.830Z,34.23
2023-03-03T05:13:55.305Z,21.70
2023-03-03T05:16:22.838Z,22.77
2023-03-03T05:18:51.641Z,30.90
2023-03-03T05:21:19.110Z,37.87
2023-03-03T05:23:46.558Z,40.20
2023-03-03T05:26:14.177Z,24.43
2023-03-03T05:28:41.626Z,28.07
2023-03-03T05:31:09.150Z,34.50
2023-03-03T05:33:36.712Z,39.57
2023-03-03T05:36:05.872Z,31.37
2023-03-03T05:38:33.331Z,42.50
2023-03-03T05:41:00.809Z,28.53
2023-03-03T05:43:29.150Z,42.10
2023-03-03T05:45:57.594Z,31.70
2023-03-03T05:48:25.335Z,37.33
2023-03-03T05:50:52.869Z,36.67
2023-03-03T05:53:21.662Z,46.73
2023-03-03T05:55:49.386Z,52.50
2023-03-03T05:58:16.888Z,47.07
2023-03-03T06:00:44.342Z,46.00
2023-03-03T06:03:11.858Z,49.93
2023-03-03T06:05:39.390Z,48.23
2023-03-03T06:08:06.953Z,30.97
2023-03-03T06:10:35.778Z,31.07
2023-03-03T06:13:03.345Z,35.83
2023-03-03T06:15:31.043Z,34.87
2023-03-03T06:17:58.562Z,39.80
2023-03-03T06:20:26.132Z,26.77
2023-03-03T06:22:53.908Z,29.93
2023-03-03T06:25:21.516Z,31.27
2023-03-03T06:27:50.411Z,28.03
2023-03-03T06:30:18.915Z,21.13
2023-03-03T06:32:46.731Z,20.43
2023-03-03T06:35:14.438Z,17.07
2023-03-03T06:37:41.914Z,20.03
2023-03-03T06:40:10.710Z,15.73
2023-03-03T06:42:38.290Z,30.50
2023-03-03T06:45:07.981Z,19.07
2023-03-03T06:47:35.471Z,24.83
2023-03-03T06:50:02.958Z,22.17
2023-03-03T06:52:30.408Z,17.90
2023-03-03T06:55:01.810Z,19.43
2023-03-03T06:57:31.646Z,15.73
2023-03-03T07:00:04.206Z,25.60
2023-03-03T07:02:33.022Z,21.80
2023-03-03T07:05:00.500Z,32.80
2023-03-03T07:07:28.082Z,24.87
2023-03-03T07:09:57.450Z,48.67
2023-03-03T07:12:27.732Z,58.83
2023-03-03T07:15:02.402Z,53.47
2023-03-03T07:17:32.764Z,47.47
2023-03-03T07:20:00.206Z,41.60
2023-03-03T07:22:30.162Z,27.73
2023-03-03T07:25:01.728Z,20.87
2023-03-03T07:27:30.879Z,22.33
2023-03-03T07:30:18.966Z,15.40
2023-03-03T07:32:48.482Z,16.80
2023-03-03T07:35:30.529Z,12.77
2023-03-03T07:37:58.400Z,13.33
2023-03-03T07:40:36.516Z,13.03
2023-03-03T07:43:28.394Z,12.47
2023-03-03T07:46:02.769Z,12.13
2023-03-03T07:48:36.974Z,12.60
2023-03-03T07:51:12.496Z,11.70
2023-03-03T07:53:40.341Z,10.27
2023-03-03T07:56:17.958Z,11.23
2023-03-03T07:58:45.439Z,11.17
2023-03-03T08:01:39.695Z,8.90
2023-03-03T08:04:19.306Z,11.30
2023-03-03T08:06:49.493Z,8.77
2023-03-03T08:09:39.518Z,7.87
2023-03-03T08:12:45.083Z,10.13
2023-03-03T08:15:23.141Z,12.27
2023-03-03T08:17:52.181Z,11.97
2023-03-03T08:20:45.070Z,12.17
2023-03-03T08:23:14.003Z,12.43
2023-03-03T08:25:42.677Z,11.80
2023-03-03T08:28:10.456Z,11.90
2023-03-03T08:30:38.034Z,11.00
2023-03-03T08:33:05.556Z,10.47
2023-03-03T08:35:33.111Z,12.40
2023-03-03T08:38:02.110Z,12.50
2023-03-03T08:40:29.805Z,11.50
2023-03-03T08:42:58.093Z,11.77
2023-03-03T08:45:26.287Z,12.40
2023-03-03T08:47:54.394Z,12.03
2023-03-03T08:50:22.136Z,13.17
2023-03-03T08:52:50.134Z,12.30
2023-03-03T08:55:19.506Z,12.30
2023-03-03T08:57:47.028Z,12.88
2023-03-03T09:00:18.021Z,12.73
2023-03-03T09:02:45.521Z,10.43
2023-03-03T09:05:13.959Z,11.70
2023-03-03T09:07:42.414Z,9.73
2023-03-03T09:10:13.409Z,8.47
2023-03-03T09:12:43.611Z,11.27
2023-03-03T09:15:20.163Z,11.43
2023-03-03T09:17:48.668Z,9.37
2023-03-03T09:20:37.324Z,10.17
2023-03-03T09:23:31.156Z,12.37
2023-03-03T09:26:00.201Z,8.40
2023-03-03T09:28:31.559Z,9.97
2023-03-03T09:31:07.371Z,12.73
2023-03-03T09:33:43.376Z,12.37
2023-03-03T09:36:23.808Z,8.77
2023-03-03T09:38:51.526Z,12.80
2023-03-03T09:41:54.902Z,12.97
2023-03-03T09:44:35.433Z,11.07
2023-03-03T09:47:16.778Z,12.03
2023-03-03T09:49:58.127Z,12.17
2023-03-03T09:52:38.501Z,11.97
2023-03-03T09:55:19.064Z,11.70
2023-03-03T09:58:10.489Z,11.13
2023-03-03T10:00:49.058Z,12.48
2023-03-03T10:03:53.939Z,11.67
2023-03-03T10:06:27.978Z,12.48
2023-03-03T10:09:09.801Z,14.40
2023-03-03T10:11:46.089Z,12.65
2023-03-03T10:14:37.897Z,13.23
2023-03-03T10:17:26.814Z,13.85
2023-03-03T10:20:05.620Z,13.07
2023-03-03T10:22:40.257Z,12.90
2023-03-03T10:25:32.220Z,12.13
2023-03-03T10:28:25.261Z,11.38
2023-03-03T10:31:10.397Z,12.30
2023-03-03T10:33:46.964Z,12.23
2023-03-03T10:36:30.821Z,13.32
2023-03-03T10:39:12.734Z,14.00
2023-03-03T10:42:01.384Z,14.25
2023-03-03T10:44:41.893Z,12.75
2023-03-03T10:47:29.550Z,13.85
2023-03-03T10:50:07.444Z,13.57
2023-03-03T10:52:45.057Z,13.15
2023-03-03T10:55:27.890Z,13.05
2023-03-03T10:58:09.513Z,13.60
2023-03-03T11:00:43.870Z,13.38
2023-03-03T11:03:33.845Z,14.25
2023-03-03T11:06:06.108Z,12.98
2023-03-03T11:08:42.208Z,14.20
2023-03-03T11:11:19.149Z,14.25
2023-03-03T11:13:52.111Z,13.40
2023-03-03T11:16:34.731Z,12.77
2023-03-03T11:19:13.283Z,13.75
2023-03-03T11:21:51.932Z,13.90
2023-03-03T11:24:32.389Z,13.98
2023-03-03T11:27:16.339Z,13.32
2023-03-03T11:29:58.278Z,12.65
2023-03-03T11:32:38.982Z,12.60
2023-03-03T11:35:21.495Z,13.77
2023-03-03T11:38:02.616Z,13.52
2023-03-03T11:40:37.279Z,13.15
2023-03-03T11:43:11.462Z,13.80
2023-03-03T11:45:43.599Z,12.90
2023-03-03T11:48:19.310Z,13.10
2023-03-03T11:50:56.336Z,13.60
2023-03-03T11:53:36.334Z,12.70
2023-03-03T11:56:16.312Z,13.02
2023-03-03T11:58:47.797Z,13.57
2023-03-03T12:01:23.448Z,13.63
2023-03-03T12:03:56.792Z,11.60
2023-03-03T12:06:31.468Z,13.52
2023-03-03T12:09:18.642Z,13.02
2023-03-03T12:11:54.188Z,13.98
2023-03-03T12:14:34.207Z,13.48
2023-03-03T12:17:07.468Z,13.50
2023-03-03T12:19:43.334Z,13.88
2023-03-03T12:22:22.835Z,13.32
2023-03-03T12:25:23.618Z,13.60
2023-03-03T12:27:57.712Z,12.65
2023-03-03T12:30:46.048Z,13.00
2023-03-03T12:33:23.360Z,13.02
2023-03-03T12:36:02.549Z,12.63
2023-03-03T12:38:39.527Z,12.57
2023-03-03T12:41:16.401Z,12.23
2023-03-03T12:44:00.778Z,11.60
2023-03-03T12:46:39.920Z,12.52
2023-03-03T12:49:07.530Z,12.65
2023-03-03T12:51:43.990Z,12.25
2023-03-03T12:54:23.745Z,12.20
2023-03-03T12:56:56.882Z,13.27
2023-03-03T12:59:37.245Z,13.25
2023-03-03T13:02:30.945Z,12.13
2023-03-03T13:05:09.060Z,11.48
2023-03-03T13:07:43.038Z,12.13
2023-03-03T13:10:21.417Z,11.80
2023-03-03T13:12:55.305Z,12.20
2023-03-03T13:15:32.202Z,13.57
2023-03-03T13:18:20.594Z,11.93
2023-03-03T13:20:52.480Z,13.77
2023-03-03T13:23:32.905Z,12.82
2023-03-03T13:26:08.787Z,12.57
2023-03-03T13:28:41.963Z,12.35
2023-03-03T13:31:16.116Z,11.18
2023-03-03T13:33:52.064Z,11.70
2023-03-03T13:36:20.039Z,11.98
2023-03-03T13:38:50.307Z,12.18
2023-03-03T13:41:24.952Z,12.43
2023-03-03T13:43:58.308Z,11.85
2023-03-03T13:46:35.752Z,12.15
2023-03-03T13:49:16.938Z,11.05
2023-03-03T13:51:51.432Z,11.02
2023-03-03T13:54:37.346Z,10.15
2023-03-03T13:57:15.610Z,11.93
2023-03-03T13:59:53.862Z,11.18
2023-03-03T14:02:42.435Z,11.40
2023-03-03T14:05:17.343Z,11.98
2023-03-03T14:07:53.289Z,12.05
2023-03-03T14:10:25.474Z,11.35
2023-03-03T14:13:03.348Z,11.48
2023-03-03T14:15:36.770Z,11.25
2023-03-03T14:18:20.852Z,11.13
2023-03-03T14:20:50.994Z,11.05
2023-03-03T14:23:24.046Z,10.00
2023-03-03T14:25:55.838Z,10.73
2023-03-03T14:28:24.960Z,9.18
2023-03-03T14:30:56.180Z,9.57
2023-03-03T14:33:29.564Z,9.88
2023-03-03T14:36:12.308Z,10.30
2023-03-03T14:38:47.778Z,11.10
2023-03-03T14:41:39.651Z,11.00
2023-03-03T14:44:26.837Z,10.88
2023-03-03T14:47:20.522Z,11.52
2023-03-03T14:49:48.323Z,10.90
2023-03-03T14:52:25.530Z,10.80
2023-03-03T14:54:54.844Z,11.57
2023-03-03T14:57:30.310Z,10.77
2023-03-03T15:00:06.832Z,11.25
2023-03-03T15:02:42.266Z,10.77
2023-03-03T15:05:18.239Z,9.23
2023-03-03T15:07:46.888Z,8.70
2023-03-03T15:10:27.030Z,8.05
2023-03-03T15:12:54.716Z,8.20
2023-03-03T15:15:23.745Z,8.30
2023-03-03T15:18:01.220Z,8.07
2023-03-03T15:20:38.050Z,9.25
2023-03-03T15:23:19.543Z,8.73
2023-03-03T15:25:54.654Z,9.32
2023-03-03T15:28:33.253Z,10.30
2023-03-03T15:31:06.757Z,8.48
2023-03-03T15:33:44.030Z,9.18
2023-03-03T15:36:21.514Z,11.25
2023-03-03T15:38:59.814Z,10.93
2023-03-03T15:41:38.208Z,19.00
2023-03-03T15:44:17.564Z,13.50
2023-03-03T15:47:14.161Z,12.52
2023-03-03T15:50:03.706Z,12.38
2023-03-03T15:52:41.976Z,11.13
2023-03-03T15:55:27.529Z,11.10
2023-03-03T15:58:12.876Z,11.73
2023-03-03T16:00:55.115Z,10.90
2023-03-03T16:03:27.845Z,11.38
2023-03-03T16:06:02.126Z,11.45
2023-03-03T16:08:41.406Z,11.18
2023-03-03T16:11:13.742Z,10.68
2023-03-03T16:14:01.331Z,11.57
2023-03-03T16:16:40.331Z,10.93
2023-03-03T16:19:18.158Z,11.23
2023-03-03T16:22:03.534Z,11.18
2023-03-03T16:24:42.568Z,10.40
2023-03-03T16:27:20.024Z,10.57
2023-03-03T16:30:08.034Z,11.43
2023-03-03T16:32:41.538Z,12.05
2023-03-03T16:35:22.664Z,9.77
2023-03-03T16:37:59.145Z,11.15
2023-03-03T16:40:30.766Z,12.80
2023-03-03T16:43:11.871Z,15.10
2023-03-03T16:45:41.274Z,12.70
2023-03-03T16:48:22.776Z,11.60
2023-03-03T16:51:05.122Z,10.87
2023-03-03T16:53:49.247Z,11.83
2023-03-03T16:56:22.840Z,10.97
2023-03-03T16:59:04.511Z,14.43
2023-03-03T17:01:41.550Z,16.73
2023-03-03T17:04:15.230Z,17.27
2023-03-03T17:06:50.039Z,15.00
2023-03-03T17:09:39.815Z,12.83
2023-03-03T17:12:26.453Z,11.23
2023-03-03T17:15:10.994Z,10.13
2023-03-03T17:17:45.035Z,12.17
2023-03-03T17:20:30.881Z,10.50
2023-03-03T17:23:16.094Z,14.20
2023-03-03T17:25:52.195Z,17.57
2023-03-03T17:28:33.106Z,18.27
2023-03-03T17:31:10.952Z,17.03
2023-03-03T17:33:53.266Z,16.90
2023-03-03T17:36:33.762Z,13.40
2023-03-03T17:39:13.812Z,10.70
2023-03-03T17:41:50.718Z,12.50
2023-03-03T17:44:25.388Z,13.37
2023-03-03T17:46:56.466Z,13.20
2023-03-03T17:49:42.625Z,12.97
2023-03-03T17:52:24.631Z,18.97
2023-03-03T17:55:32.827Z,9.93
2023-03-03T17:58:18.516Z,12.50
2023-03-03T18:00:59.384Z,28.53
2023-03-03T18:03:38.568Z,22.80
2023-03-03T18:06:36.684Z,27.80
2023-03-03T18:09:18.309Z,41.57
2023-03-03T18:11:57.398Z,43.73
2023-03-03T18:14:52.527Z,56.63
2023-03-03T18:17:35.345Z,57.03
2023-03-03T18:20:30.328Z,67.83
2023-03-03T18:22:57.972Z,41.57
2023-03-03T18:25:27.661Z,38.67
2023-03-03T18:28:21.992Z,32.33
2023-03-03T18:30:56.817Z,23.60
2023-03-03T18:33:43.137Z,21.90
2023-03-03T18:36:16.286Z,25.43
2023-03-03T18:38:47.583Z,24.13
2023-03-03T18:41:26.001Z,20.93
2023-03-03T18:43:57.485Z,18.33
2023-03-03T18:46:55.232Z,22.87
2023-03-03T18:50:08.442Z,38.13
2023-03-03T18:52:36.945Z,44.33
2023-03-03T18:55:24.637Z,44.70
2023-03-03T18:58:33.937Z,41.90
2023-03-03T19:01:12.962Z,37.33
2023-03-03T19:04:16.770Z,34.83
2023-03-03T19:07:18.865Z,35.33
2023-03-03T19:09:52.463Z,30.33
2023-03-03T19:12:40.419Z,18.47
2023-03-03T19:15:29.444Z,13.13
2023-03-03T19:17:59.685Z,10.13
2023-03-03T19:20:39.124Z,9.13
2023-03-03T19:23:12.136Z,8.23
2023-03-03T19:25:39.705Z,9.93
2023-03-03T19:28:33.493Z,8.40
2023-03-03T19:31:04.755Z,7.83
2023-03-03T19:33:43.678Z,7.27
2023-03-03T19:36:48.250Z,7.10
2023-03-03T19:39:34.421Z,7.60
2023-03-03T19:42:12.726Z,6.60
2023-03-03T19:44:54.241Z,7.23
2023-03-03T19:47:34.444Z,7.13
2023-03-03T19:50:16.673Z,8.10
2023-03-03T19:52:50.701Z,8.93
2023-03-03T19:55:35.539Z,8.57
2023-03-03T19:58:18.423Z,8.30
2023-03-03T20:00:48.741Z,8.00
2023-03-03T20:03:45.507Z,8.90
2023-03-03T20:06:25.920Z,6.80
2023-03-03T20:09:02.850Z,7.70
2023-03-03T20:11:55.951Z,8.37
2023-03-03T20:14:36.154Z,8.17
2023-03-03T20:17:19.019Z,9.17
2023-03-03T20:19:53.034Z,9.93
2023-03-03T20:22:29.253Z,9.87
2023-03-03T20:25:10.365Z,25.43
2023-03-03T20:27:48.050Z,25.63
2023-03-03T20:30:30.949Z,31.07
2023-03-03T20:33:17.920Z,19.77
2023-03-03T20:35:58.282Z,17.63
2023-03-03T20:38:32.893Z,11.70
2023-03-03T20:41:13.348Z,12.47
2023-03-03T20:43:55.389Z,10.10
2023-03-03T20:46:28.134Z,13.27
2023-03-03T20:49:10.941Z,12.00
2023-03-03T20:51:45.940Z,7.90
2023-03-03T20:54:24.311Z,8.67
2023-03-03T20:56:57.469Z,8.90
2023-03-03T20:59:32.928Z,8.33
2023-03-03T21:02:08.434Z,10.37
2023-03-03T21:04:36.227Z,10.53
2023-03-03T21:07:05.432Z,13.80
2023-03-03T21:09:35.100Z,12.50
2023-03-03T21:12:12.106Z,21.40
2023-03-03T21:14:39.622Z,27.30
2023-03-03T21:17:26.250Z,38.70
2023-03-03T21:19:53.699Z,46.47
2023-03-03T21:22:21.229Z,46.20
2023-03-03T21:24:50.829Z,52.20
2023-03-03T21:27:31.160Z,49.10
2023-03-03T21:30:07.928Z,37.70
2023-03-03T21:32:38.489Z,23.67
2023-03-03T21:35:08.740Z,10.63
2023-03-03T21:37:49.425Z,10.13
2023-03-03T21:40:20.860Z,18.73
2023-03-03T21:42:50.029Z,27.50
2023-03-03T21:45:20.372Z,21.13
2023-03-03T21:47:48.303Z,31.97
2023-03-03T21:50:16.611Z,29.07
2023-03-03T21:52:44.283Z,46.20
2023-03-03T21:55:11.839Z,54.53
2023-03-03T21:57:39.342Z,41.57
2023-03-03T22:00:11.601Z,36.23
2023-03-03T22:02:39.052Z,45.83
2023-03-03T22:05:07.991Z,31.73
2023-03-03T22:07:35.554Z,47.10
2023-03-03T22:10:03.073Z,39.93
2023-03-03T22:12:30.596Z,36.57
2023-03-03T22:14:58.060Z,47.30
2023-03-03T22:17:27.984Z,23.53
2023-03-03T22:19:55.621Z,19.00
2023-03-03T22:22:24.183Z,22.33
2023-03-03T22:24:51.673Z,29.10
2023-03-03T22:27:19.180Z,42.87
2023-03-03T22:29:46.670Z,59.37
2023-03-03T22:32:14.196Z,63.77
2023-03-03T22:34:43.212Z,17.50
2023-03-03T22:37:10.705Z,15.10
2023-03-03T22:39:38.186Z,12.70
2023-03-03T22:42:05.747Z,14.03
2023-03-03T22:44:33.219Z,14.93
2023-03-03T22:47:00.669Z,15.97
2023-03-03T22:49:28.238Z,13.90
2023-03-03T22:51:58.648Z,17.20
2023-03-03T22:54:26.207Z,16.70
2023-03-03T22:56:53.658Z,23.70
2023-03-03T22:59:21.118Z,30.23
2023-03-03T23:01:48.581Z,38.67
2023-03-03T23:04:16.079Z,20.73
2023-03-03T23:06:44.726Z,17.73
2023-03-03T23:09:13.570Z,16.73
2023-03-03T23:11:41.043Z,16.17
2023-03-03T23:14:08.505Z,14.00
2023-03-03T23:16:35.967Z,13.03
2023-03-03T23:19:03.456Z,11.53
2023-03-03T23:21:30.936Z,12.20
2023-03-03T23:23:58.432Z,10.43
2023-03-03T23:26:27.298Z,13.23
2023-03-03T23:28:54.824Z,10.70
2023-03-03T23:31:22.364Z,11.43
2023-03-03T23:33:49.872Z,8.53
2023-03-03T23:36:17.387Z,9.97
2023-03-03T23:38:44.855Z,10.43
2023-03-03T23:41:12.330Z,10.23
2023-03-03T23:43:41.098Z,9.47
2023-03-03T23:46:08.977Z,12.03
2023-03-03T23:48:36.485Z,11.17
2023-03-03T23:51:04.013Z,10.57
2023-03-03T23:53:31.483Z,11.30
2023-03-03T23:55:58.958Z,10.97
2023-03-03T23:58:26.439Z,10.70
